sensor_id;sensor_type;location;lat;lon;timestamp;pressure;altitude;pressure_sealevel;temperature
76476;BMP280;65308;50.078;14.854;2024-03-29T00:00:56;97902.81;;;8.90
76476;BMP280;65308;50.078;14.854;2024-03-29T00:03:22;97898.03;;;8.94
76476;BMP280;65308;50.078;14.854;2024-03-29T00:05:47;97898.94;;;8.91
76476;BMP280;65308;50.078;14.854;2024-03-29T00:08:13;97894.41;;;8.83
76476;BMP280;65308;50.078;14.854;2024-03-29T00:10:39;97907.41;;;8.66
76476;BMP280;65308;50.078;14.854;2024-03-29T00:13:05;97901.75;;;8.73
76476;BMP280;65308;50.078;14.854;2024-03-29T00:15:31;97906.28;;;8.58
76476;BMP280;65308;50.078;14.854;2024-03-29T00:17:58;97905.66;;;8.63
76476;BMP280;65308;50.078;14.854;2024-03-29T00:20:24;97899.81;;;8.50
76476;BMP280;65308;50.078;14.854;2024-03-29T00:22:49;97903.97;;;8.51
76476;BMP280;65308;50.078;14.854;2024-03-29T00:25:15;97905.66;;;8.63
76476;BMP280;65308;50.078;14.854;2024-03-29T00:27:40;97907.75;;;8.59
76476;BMP280;65308;50.078;14.854;2024-03-29T00:30:07;97907.00;;;8.82
76476;BMP280;65308;50.078;14.854;2024-03-29T00:32:32;97906.28;;;8.58
76476;BMP280;65308;50.078;14.854;2024-03-29T00:34:59;97911.00;;;8.63
76476;BMP280;65308;50.078;14.854;2024-03-29T00:37:25;97913.38;;;8.61
76476;BMP280;65308;50.078;14.854;2024-03-29T00:39:51;97931.75;;;8.59
76476;BMP280;65308;50.078;14.854;2024-03-29T00:42:16;97932.47;;;8.35
76476;BMP280;65308;50.078;14.854;2024-03-29T00:44:42;97929.94;;;8.41
76476;BMP280;65308;50.078;14.854;2024-03-29T00:47:08;97944.63;;;8.36
76476;BMP280;65308;50.078;14.854;2024-03-29T00:49:34;97949.66;;;8.34
76476;BMP280;65308;50.078;14.854;2024-03-29T00:52:03;97954.38;;;8.30
76476;BMP280;65308;50.078;14.854;2024-03-29T00:54:29;97958.56;;;8.31
76476;BMP280;65308;50.078;14.854;2024-03-29T00:56:55;97963.28;;;8.36
76476;BMP280;65308;50.078;14.854;2024-03-29T00:59:20;97958.63;;;8.46
76476;BMP280;65308;50.078;14.854;2024-03-29T01:01:46;97966.75;;;8.52
76476;BMP280;65308;50.078;14.854;2024-03-29T01:04:12;97962.09;;;8.28
76476;BMP280;65308;50.078;14.854;2024-03-29T01:06:38;97962.09;;;8.28
76476;BMP280;65308;50.078;14.854;2024-03-29T01:09:05;97972.03;;;8.28
76476;BMP280;65308;50.078;14.854;2024-03-29T01:11:31;97963.28;;;8.36
76476;BMP280;65308;50.078;14.854;2024-03-29T01:13:57;97974.56;;;8.22
76476;BMP280;65308;50.078;14.854;2024-03-29T01:16:23;97963.09;;;8.40
76476;BMP280;65308;50.078;14.854;2024-03-29T01:18:49;97972.44;;;8.35
76476;BMP280;65308;50.078;14.854;2024-03-29T01:21:15;97962.09;;;8.28
76476;BMP280;65308;50.078;14.854;2024-03-29T01:23:41;97956.41;;;8.02
76476;BMP280;65308;50.078;14.854;2024-03-29T01:26:08;97966.47;;;8.07
76476;BMP280;65308;50.078;14.854;2024-03-29T01:28:34;97969.16;;;7.98
76476;BMP280;65308;50.078;14.854;2024-03-29T01:31:00;97976.25;;;8.01
76476;BMP280;65308;50.078;14.854;2024-03-29T01:33:25;97965.72;;;8.07
76476;BMP280;65308;50.078;14.854;2024-03-29T01:35:51;97975.22;;;7.89
76476;BMP280;65308;50.078;14.854;2024-03-29T01:38:17;97973.03;;;7.88
76476;BMP280;65308;50.078;14.854;2024-03-29T01:40:43;97959.97;;;7.99
76476;BMP280;65308;50.078;14.854;2024-03-29T01:43:10;97971.94;;;8.13
76476;BMP280;65308;50.078;14.854;2024-03-29T01:45:38;97960.81;;;8.14
76476;BMP280;65308;50.078;14.854;2024-03-29T01:48:06;97964.38;;;8.02
76476;BMP280;65308;50.078;14.854;2024-03-29T01:50:33;97956.41;;;7.93
76476;BMP280;65308;50.078;14.854;2024-03-29T01:53:01;97956.72;;;7.95
76476;BMP280;65308;50.078;14.854;2024-03-29T01:55:28;97954.81;;;7.95
76476;BMP280;65308;50.078;14.854;2024-03-29T01:57:55;97957.75;;;7.97
76476;BMP280;65308;50.078;14.854;2024-03-29T02:00:24;97952.44;;;7.88
76476;BMP280;65308;50.078;14.854;2024-03-29T02:02:52;97951.13;;;7.84
76476;BMP280;65308;50.078;14.854;2024-03-29T02:05:22;97951.69;;;7.97
76476;BMP280;65308;50.078;14.854;2024-03-29T02:07:49;97945.91;;;8.08
76476;BMP280;65308;50.078;14.854;2024-03-29T02:10:15;97956.31;;;7.87
76476;BMP280;65308;50.078;14.854;2024-03-29T02:12:42;97952.19;;;7.68
76476;BMP280;65308;50.078;14.854;2024-03-29T02:15:14;97962.13;;;7.49
76476;BMP280;65308;50.078;14.854;2024-03-29T02:17:42;97969.50;;;7.54
76476;BMP280;65308;50.078;14.854;2024-03-29T02:20:09;97975.84;;;7.57
76476;BMP280;65308;50.078;14.854;2024-03-29T02:22:37;97968.31;;;7.37
76476;BMP280;65308;50.078;14.854;2024-03-29T02:25:08;97968.75;;;7.44
76476;BMP280;65308;50.078;14.854;2024-03-29T02:27:35;97974.19;;;7.41
76476;BMP280;65308;50.078;14.854;2024-03-29T02:30:01;97974.66;;;7.30
76476;BMP280;65308;50.078;14.854;2024-03-29T02:32:28;97988.53;;;7.16
76476;BMP280;65308;50.078;14.854;2024-03-29T02:34:55;97984.41;;;7.24
76476;BMP280;65308;50.078;14.854;2024-03-29T02:37:21;98002.44;;;7.20
76476;BMP280;65308;50.078;14.854;2024-03-29T02:39:48;97995.59;;;7.09
76476;BMP280;65308;50.078;14.854;2024-03-29T02:42:16;97990.28;;;7.19
76476;BMP280;65308;50.078;14.854;2024-03-29T02:44:42;97982.63;;;7.21
76476;BMP280;65308;50.078;14.854;2024-03-29T02:47:08;97990.59;;;7.21
76476;BMP280;65308;50.078;14.854;2024-03-29T02:49:34;97987.63;;;7.09
76476;BMP280;65308;50.078;14.854;2024-03-29T02:52:01;97966.94;;;7.14
76476;BMP280;65308;50.078;14.854;2024-03-29T02:54:26;97975.97;;;7.16
76476;BMP280;65308;50.078;14.854;2024-03-29T02:56:53;97976.88;;;7.22
76476;BMP280;65308;50.078;14.854;2024-03-29T02:59:20;97981.72;;;7.15
76476;BMP280;65308;50.078;14.854;2024-03-29T03:01:46;97971.72;;;7.28
76476;BMP280;65308;50.078;14.854;2024-03-29T03:04:12;97979.06;;;7.24
76476;BMP280;65308;50.078;14.854;2024-03-29T03:06:38;97987.81;;;7.34
76476;BMP280;65308;50.078;14.854;2024-03-29T03:09:04;97991.22;;;7.16
76476;BMP280;65308;50.078;14.854;2024-03-29T03:11:47;97990.47;;;7.34
76476;BMP280;65308;50.078;14.854;2024-03-29T03:14:14;97975.97;;;7.16
76476;BMP280;65308;50.078;14.854;2024-03-29T03:16:42;97976.41;;;7.05
76476;BMP280;65308;50.078;14.854;2024-03-29T03:19:08;97995.56;;;7.00
76476;BMP280;65308;50.078;14.854;2024-03-29T03:21:35;97989.94;;;6.80
76476;BMP280;65308;50.078;14.854;2024-03-29T03:24:02;98001.16;;;6.84
76476;BMP280;65308;50.078;14.854;2024-03-29T03:26:29;97990.00;;;6.67
76476;BMP280;65308;50.078;14.854;2024-03-29T03:28:56;97987.66;;;6.69
76476;BMP280;65308;50.078;14.854;2024-03-29T03:31:21;97981.03;;;6.43
76476;BMP280;65308;50.078;14.854;2024-03-29T03:33:49;98003.03;;;6.43
76476;BMP280;65308;50.078;14.854;2024-03-29T03:36:15;98003.41;;;6.54
76476;BMP280;65308;50.078;14.854;2024-03-29T03:38:42;98003.56;;;6.60
76476;BMP280;65308;50.078;14.854;2024-03-29T03:41:08;97991.94;;;6.67
76476;BMP280;65308;50.078;14.854;2024-03-29T03:43:34;98000.09;;;6.81
76476;BMP280;65308;50.078;14.854;2024-03-29T03:46:01;97985.66;;;6.82
76476;BMP280;65308;50.078;14.854;2024-03-29T03:48:27;97984.38;;;6.65
76476;BMP280;65308;50.078;14.854;2024-03-29T03:50:56;97976.91;;;6.73
76476;BMP280;65308;50.078;14.854;2024-03-29T03:53:22;97967.84;;;6.61
76476;BMP280;65308;50.078;14.854;2024-03-29T03:55:48;97960.44;;;6.96
76476;BMP280;65308;50.078;14.854;2024-03-29T03:58:14;97947.69;;;6.82
76476;BMP280;65308;50.078;14.854;2024-03-29T04:00:40;97935.97;;;6.70
76476;BMP280;65308;50.078;14.854;2024-03-29T04:03:06;97939.22;;;6.74
76476;BMP280;65308;50.078;14.854;2024-03-29T04:05:33;97956.72;;;6.53
76476;BMP280;65308;50.078;14.854;2024-03-29T04:08:03;97970.03;;;6.53
76476;BMP280;65308;50.078;14.854;2024-03-29T04:10:30;97964.72;;;6.53
76476;BMP280;65308;50.078;14.854;2024-03-29T04:12:55;97952.44;;;6.47
76476;BMP280;65308;50.078;14.854;2024-03-29T04:15:22;97952.63;;;6.61
76476;BMP280;65308;50.078;14.854;2024-03-29T04:17:47;97955.00;;;6.69
76476;BMP280;65308;50.078;14.854;2024-03-29T04:20:14;97961.69;;;6.73
76476;BMP280;65308;50.078;14.854;2024-03-29T04:22:40;97971.88;;;6.75
76476;BMP280;65308;50.078;14.854;2024-03-29T04:25:08;97964.81;;;6.90
76476;BMP280;65308;50.078;14.854;2024-03-29T04:27:33;97964.53;;;6.97
76476;BMP280;65308;50.078;14.854;2024-03-29T04:30:00;97950.34;;;7.00
76476;BMP280;65308;50.078;14.854;2024-03-29T04:32:25;97944.03;;;7.16
76476;BMP280;65308;50.078;14.854;2024-03-29T04:34:52;97948.94;;;7.27
76476;BMP280;65308;50.078;14.854;2024-03-29T04:37:18;97962.25;;;7.27
76476;BMP280;65308;50.078;14.854;2024-03-29T04:39:45;97970.50;;;7.20
76476;BMP280;65308;50.078;14.854;2024-03-29T04:42:13;97969.63;;;7.41
76476;BMP280;65308;50.078;14.854;2024-03-29T04:44:40;97971.53;;;7.41
76476;BMP280;65308;50.078;14.854;2024-03-29T04:47:07;97967.81;;;7.29
76476;BMP280;65308;50.078;14.854;2024-03-29T04:49:33;97969.59;;;7.60
76476;BMP280;65308;50.078;14.854;2024-03-29T04:52:01;97970.09;;;7.49
76476;BMP280;65308;50.078;14.854;2024-03-29T04:54:28;97946.56;;;7.47
76476;BMP280;65308;50.078;14.854;2024-03-29T04:56:54;97927.47;;;7.76
76476;BMP280;65308;50.078;14.854;2024-03-29T04:59:22;97952.41;;;8.07
76476;BMP280;65308;50.078;14.854;2024-03-29T05:01:49;97954.59;;;8.27
76476;BMP280;65308;50.078;14.854;2024-03-29T05:04:16;97956.09;;;8.52
76476;BMP280;65308;50.078;14.854;2024-03-29T05:06:50;97956.88;;;8.76
76476;BMP280;65308;50.078;14.854;2024-03-29T05:09:16;97969.28;;;9.81
76476;BMP280;65308;50.078;14.854;2024-03-29T05:11:43;97961.13;;;10.75
76476;BMP280;65308;50.078;14.854;2024-03-29T05:14:09;97965.84;;;12.05
76476;BMP280;65308;50.078;14.854;2024-03-29T05:16:37;97971.47;;;13.10
76476;BMP280;65308;50.078;14.854;2024-03-29T05:19:04;97984.38;;;14.29
76476;BMP280;65308;50.078;14.854;2024-03-29T05:21:31;97978.81;;;15.32
76476;BMP280;65308;50.078;14.854;2024-03-29T05:23:57;97976.00;;;16.22
76476;BMP280;65308;50.078;14.854;2024-03-29T05:26:24;97978.38;;;17.07
76476;BMP280;65308;50.078;14.854;2024-03-29T05:28:51;97984.78;;;17.55
76476;BMP280;65308;50.078;14.854;2024-03-29T05:31:19;97983.97;;;17.73
76476;BMP280;65308;50.078;14.854;2024-03-29T05:33:47;97988.47;;;17.97
76476;BMP280;65308;50.078;14.854;2024-03-29T05:36:13;97978.34;;;18.38
76476;BMP280;65308;50.078;14.854;2024-03-29T05:38:40;97995.19;;;18.57
76476;BMP280;65308;50.078;14.854;2024-03-29T05:41:07;97956.19;;;18.26
76476;BMP280;65308;50.078;14.854;2024-03-29T05:43:34;97966.16;;;17.65
76476;BMP280;65308;50.078;14.854;2024-03-29T05:46:00;97951.47;;;16.83
76476;BMP280;65308;50.078;14.854;2024-03-29T05:48:27;97955.03;;;15.61
76476;BMP280;65308;50.078;14.854;2024-03-29T05:50:55;97964.31;;;14.99
76476;BMP280;65308;50.078;14.854;2024-03-29T05:53:21;97964.34;;;14.24
76476;BMP280;65308;50.078;14.854;2024-03-29T05:55:48;97957.84;;;13.58
76476;BMP280;65308;50.078;14.854;2024-03-29T05:58:15;97967.31;;;13.14
76476;BMP280;65308;50.078;14.854;2024-03-29T06:00:43;97959.50;;;12.45
76476;BMP280;65308;50.078;14.854;2024-03-29T06:03:09;97968.06;;;12.12
76476;BMP280;65308;50.078;14.854;2024-03-29T06:05:36;97982.38;;;12.03
76476;BMP280;65308;50.078;14.854;2024-03-29T06:08:05;97991.03;;;11.61
76476;BMP280;65308;50.078;14.854;2024-03-29T06:10:31;97995.59;;;11.29
76476;BMP280;65308;50.078;14.854;2024-03-29T06:12:58;97996.34;;;11.09
76476;BMP280;65308;50.078;14.854;2024-03-29T06:15:32;97994.28;;;10.78
76476;BMP280;65308;50.078;14.854;2024-03-29T06:18:16;97988.97;;;10.83
76476;BMP280;65308;50.078;14.854;2024-03-29T06:20:44;97989.59;;;10.93
76476;BMP280;65308;50.078;14.854;2024-03-29T06:23:12;97992.72;;;11.12
76476;BMP280;65308;50.078;14.854;2024-03-29T06:25:39;98008.41;;;11.40
76476;BMP280;65308;50.078;14.854;2024-03-29T06:28:06;98022.19;;;12.48
76476;BMP280;65308;50.078;14.854;2024-03-29T06:30:32;98015.28;;;13.78
76476;BMP280;65308;50.078;14.854;2024-03-29T06:32:59;98002.88;;;14.78
76476;BMP280;65308;50.078;14.854;2024-03-29T06:35:27;98002.38;;;15.86
76476;BMP280;65308;50.078;14.854;2024-03-29T06:37:56;98009.47;;;17.78
76476;BMP280;65308;50.078;14.854;2024-03-29T06:40:24;98019.66;;;19.20
76476;BMP280;65308;50.078;14.854;2024-03-29T06:42:50;98022.22;;;20.76
76476;BMP280;65308;50.078;14.854;2024-03-29T06:45:17;98031.25;;;22.48
76476;BMP280;65308;50.078;14.854;2024-03-29T06:47:44;98041.16;;;23.96
76476;BMP280;65308;50.078;14.854;2024-03-29T06:50:11;98036.13;;;24.83
76476;BMP280;65308;50.078;14.854;2024-03-29T06:52:37;98035.72;;;25.71
76476;BMP280;65308;50.078;14.854;2024-03-29T06:55:05;98050.59;;;26.47
76476;BMP280;65308;50.078;14.854;2024-03-29T06:57:33;98054.00;;;27.41
76476;BMP280;65308;50.078;14.854;2024-03-29T07:00:01;98057.59;;;27.22
76476;BMP280;65308;50.078;14.854;2024-03-29T07:02:28;98051.34;;;27.64
76476;BMP280;65308;50.078;14.854;2024-03-29T07:04:54;98045.47;;;28.03
76476;BMP280;65308;50.078;14.854;2024-03-29T07:07:21;98046.56;;;29.03
76476;BMP280;65308;50.078;14.854;2024-03-29T07:09:48;98055.53;;;29.04
76476;BMP280;65308;50.078;14.854;2024-03-29T07:12:14;98050.56;;;29.51
76476;BMP280;65308;50.078;14.854;2024-03-29T07:14:42;98057.31;;;30.26
76476;BMP280;65308;50.078;14.854;2024-03-29T07:17:09;98045.16;;;30.86
76476;BMP280;65308;50.078;14.854;2024-03-29T07:19:35;98044.75;;;31.51
76476;BMP280;65308;50.078;14.854;2024-03-29T07:22:02;98039.81;;;31.34
76476;BMP280;65308;50.078;14.854;2024-03-29T07:24:29;98025.03;;;31.59
76476;BMP280;65308;50.078;14.854;2024-03-29T07:26:55;98033.69;;;31.51
76476;BMP280;65308;50.078;14.854;2024-03-29T07:29:22;98040.50;;;31.95
76476;BMP280;65308;50.078;14.854;2024-03-29T07:31:50;98039.00;;;32.41
76476;BMP280;65308;50.078;14.854;2024-03-29T07:34:17;98034.69;;;33.05
76476;BMP280;65308;50.078;14.854;2024-03-29T07:36:43;98026.34;;;33.61
76476;BMP280;65308;50.078;14.854;2024-03-29T07:39:10;98031.72;;;34.14
76476;BMP280;65308;50.078;14.854;2024-03-29T07:41:37;98036.22;;;34.45
76476;BMP280;65308;50.078;14.854;2024-03-29T07:44:03;98024.97;;;35.07
76476;BMP280;65308;50.078;14.854;2024-03-29T07:46:32;98023.53;;;35.53
76476;BMP280;65308;50.078;14.854;2024-03-29T07:49:01;98032.59;;;35.80
76476;BMP280;65308;50.078;14.854;2024-03-29T07:51:28;98020.25;;;35.61
76476;BMP280;65308;50.078;14.854;2024-03-29T07:53:55;98014.84;;;35.91
76476;BMP280;65308;50.078;14.854;2024-03-29T07:56:21;98027.66;;;36.02
76476;BMP280;65308;50.078;14.854;2024-03-29T07:58:50;98019.16;;;36.54
76476;BMP280;65308;50.078;14.854;2024-03-29T08:01:18;98026.56;;;36.73
76476;BMP280;65308;50.078;14.854;2024-03-29T08:03:45;98031.78;;;37.21
76476;BMP280;65308;50.078;14.854;2024-03-29T08:06:13;98019.41;;;37.66
76476;BMP280;65308;50.078;14.854;2024-03-29T08:08:42;98024.69;;;37.16
76476;BMP280;65308;50.078;14.854;2024-03-29T08:11:08;98018.81;;;37.00
76476;BMP280;65308;50.078;14.854;2024-03-29T08:13:35;98025.38;;;37.14
76476;BMP280;65308;50.078;14.854;2024-03-29T08:16:02;98003.78;;;36.83
76476;BMP280;65308;50.078;14.854;2024-03-29T08:18:30;98012.97;;;33.93
76476;BMP280;65308;50.078;14.854;2024-03-29T08:20:56;97998.69;;;31.42
76476;BMP280;65308;50.078;14.854;2024-03-29T08:23:25;97982.81;;;29.09
76476;BMP280;65308;50.078;14.854;2024-03-29T08:25:52;97999.59;;;27.28
76476;BMP280;65308;50.078;14.854;2024-03-29T08:28:21;97998.41;;;25.56
76476;BMP280;65308;50.078;14.854;2024-03-29T08:30:57;97975.78;;;23.90
76476;BMP280;65308;50.078;14.854;2024-03-29T08:33:24;97978.97;;;22.92
76476;BMP280;65308;50.078;14.854;2024-03-29T08:35:51;97955.31;;;22.05
76476;BMP280;65308;50.078;14.854;2024-03-29T08:38:17;97968.38;;;21.58
76476;BMP280;65308;50.078;14.854;2024-03-29T08:40:45;97962.91;;;20.74
76476;BMP280;65308;50.078;14.854;2024-03-29T08:43:13;97971.69;;;20.36
76476;BMP280;65308;50.078;14.854;2024-03-29T08:45:40;97960.63;;;19.83
76476;BMP280;65308;50.078;14.854;2024-03-29T08:48:07;97953.44;;;19.57
76476;BMP280;65308;50.078;14.854;2024-03-29T08:50:34;97961.81;;;19.17
76476;BMP280;65308;50.078;14.854;2024-03-29T08:53:00;97972.16;;;18.84
76476;BMP280;65308;50.078;14.854;2024-03-29T08:55:28;97972.06;;;18.43
76476;BMP280;65308;50.078;14.854;2024-03-29T08:57:56;97964.41;;;18.68
76476;BMP280;65308;50.078;14.854;2024-03-29T09:00:23;97969.38;;;18.77
76476;BMP280;65308;50.078;14.854;2024-03-29T09:02:50;97960.34;;;18.95
76476;BMP280;65308;50.078;14.854;2024-03-29T09:05:17;97959.13;;;19.46
76476;BMP280;65308;50.078;14.854;2024-03-29T09:07:44;97952.13;;;19.58
76476;BMP280;65308;50.078;14.854;2024-03-29T09:10:11;97951.34;;;19.71
76476;BMP280;65308;50.078;14.854;2024-03-29T09:12:38;97952.53;;;19.91
76476;BMP280;65308;50.078;14.854;2024-03-29T09:15:06;97940.28;;;20.12
76476;BMP280;65308;50.078;14.854;2024-03-29T09:17:38;97947.63;;;20.33
76476;BMP280;65308;50.078;14.854;2024-03-29T09:20:05;97940.97;;;20.57
76476;BMP280;65308;50.078;14.854;2024-03-29T09:22:32;97933.19;;;20.61
76476;BMP280;65308;50.078;14.854;2024-03-29T09:24:59;97915.81;;;20.94
76476;BMP280;65308;50.078;14.854;2024-03-29T09:27:26;97909.25;;;21.20
76476;BMP280;65308;50.078;14.854;2024-03-29T09:29:54;97915.75;;;21.33
76476;BMP280;65308;50.078;14.854;2024-03-29T09:32:22;97908.06;;;21.69
76476;BMP280;65308;50.078;14.854;2024-03-29T09:34:49;97912.63;;;22.07
76476;BMP280;65308;50.078;14.854;2024-03-29T09:37:16;97919.94;;;22.29
76476;BMP280;65308;50.078;14.854;2024-03-29T09:39:43;97921.31;;;22.71
76476;BMP280;65308;50.078;14.854;2024-03-29T09:42:15;97917.22;;;23.22
76476;BMP280;65308;50.078;14.854;2024-03-29T09:44:44;97904.03;;;23.62
76476;BMP280;65308;50.078;14.854;2024-03-29T09:47:14;97909.28;;;24.32
76476;BMP280;65308;50.078;14.854;2024-03-29T09:49:44;97897.69;;;24.41
76476;BMP280;65308;50.078;14.854;2024-03-29T09:52:13;97885.34;;;24.13
76476;BMP280;65308;50.078;14.854;2024-03-29T09:54:40;97875.94;;;24.06
76476;BMP280;65308;50.078;14.854;2024-03-29T09:57:07;97881.41;;;24.43
76476;BMP280;65308;50.078;14.854;2024-03-29T09:59:34;97872.41;;;24.69
76476;BMP280;65308;50.078;14.854;2024-03-29T10:02:04;97877.66;;;24.02
76476;BMP280;65308;50.078;14.854;2024-03-29T10:04:35;97874.88;;;23.92
76476;BMP280;65308;50.078;14.854;2024-03-29T10:07:03;97856.91;;;23.89
76476;BMP280;65308;50.078;14.854;2024-03-29T10:09:31;97856.88;;;24.26
76476;BMP280;65308;50.078;14.854;2024-03-29T10:11:58;97864.25;;;24.33
76476;BMP280;65308;50.078;14.854;2024-03-29T10:14:25;97849.31;;;24.34
76476;BMP280;65308;50.078;14.854;2024-03-29T10:16:52;97853.81;;;24.58
76476;BMP280;65308;50.078;14.854;2024-03-29T10:19:19;97849.91;;;24.61
76476;BMP280;65308;50.078;14.854;2024-03-29T10:21:47;97859.41;;;24.41
76476;BMP280;65308;50.078;14.854;2024-03-29T10:24:15;97852.03;;;24.34
76476;BMP280;65308;50.078;14.854;2024-03-29T10:26:42;97847.28;;;24.34
76476;BMP280;65308;50.078;14.854;2024-03-29T10:29:10;97832.75;;;24.41
76476;BMP280;65308;50.078;14.854;2024-03-29T10:31:37;97830.38;;;24.18
76476;BMP280;65308;50.078;14.854;2024-03-29T10:34:04;97828.34;;;24.09
76476;BMP280;65308;50.078;14.854;2024-03-29T10:36:31;97817.50;;;23.92
76476;BMP280;65308;50.078;14.854;2024-03-29T10:39:02;97839.97;;;24.56
76476;BMP280;65308;50.078;14.854;2024-03-29T10:41:32;97827.31;;;24.90
76476;BMP280;65308;50.078;14.854;2024-03-29T10:44:02;97809.75;;;25.02
76476;BMP280;65308;50.078;14.854;2024-03-29T10:46:31;97825.34;;;24.81
76476;BMP280;65308;50.078;14.854;2024-03-29T10:48:58;97811.06;;;24.63
76476;BMP280;65308;50.078;14.854;2024-03-29T10:51:29;97826.75;;;24.62
76476;BMP280;65308;50.078;14.854;2024-03-29T10:53:57;97819.44;;;24.18
76476;BMP280;65308;50.078;14.854;2024-03-29T10:56:27;97822.16;;;24.09
76476;BMP280;65308;50.078;14.854;2024-03-29T10:58:59;97809.16;;;23.63
76476;BMP280;65308;50.078;14.854;2024-03-29T11:01:27;97812.75;;;23.38
76476;BMP280;65308;50.078;14.854;2024-03-29T11:04:00;97795.25;;;23.42
76476;BMP280;65308;50.078;14.854;2024-03-29T11:06:30;97794.69;;;23.43
76476;BMP280;65308;50.078;14.854;2024-03-29T11:09:04;97801.06;;;22.94
76476;BMP280;65308;50.078;14.854;2024-03-29T11:11:32;97792.81;;;23.01
76476;BMP280;65308;50.078;14.854;2024-03-29T11:14:06;97779.97;;;22.94
76476;BMP280;65308;50.078;14.854;2024-03-29T11:16:41;97784.28;;;22.63
76476;BMP280;65308;50.078;14.854;2024-03-29T11:19:12;97792.31;;;22.95
76476;BMP280;65308;50.078;14.854;2024-03-29T11:21:43;97797.47;;;22.56
76476;BMP280;65308;50.078;14.854;2024-03-29T11:24:15;97797.91;;;22.45
76476;BMP280;65308;50.078;14.854;2024-03-29T11:26:44;97788.47;;;22.81
76476;BMP280;65308;50.078;14.854;2024-03-29T11:29:19;97796.41;;;22.87
76476;BMP280;65308;50.078;14.854;2024-03-29T11:31:47;97783.66;;;23.06
76476;BMP280;65308;50.078;14.854;2024-03-29T11:34:18;97800.56;;;23.22
76476;BMP280;65308;50.078;14.854;2024-03-29T11:36:45;97793.22;;;23.42
76476;BMP280;65308;50.078;14.854;2024-03-29T11:39:20;97787.94;;;23.27
76476;BMP280;65308;50.078;14.854;2024-03-29T11:41:47;97779.63;;;23.25
76476;BMP280;65308;50.078;14.854;2024-03-29T11:44:13;97785.44;;;23.38
76476;BMP280;65308;50.078;14.854;2024-03-29T11:46:44;97783.88;;;23.62
76476;BMP280;65308;50.078;14.854;2024-03-29T11:49:12;97787.59;;;23.40
76476;BMP280;65308;50.078;14.854;2024-03-29T11:51:41;97798.19;;;23.53
76476;BMP280;65308;50.078;14.854;2024-03-29T11:54:07;97814.91;;;23.67
76476;BMP280;65308;50.078;14.854;2024-03-29T11:56:34;97809.41;;;23.57
76476;BMP280;65308;50.078;14.854;2024-03-29T11:59:03;97798.78;;;23.34
76476;BMP280;65308;50.078;14.854;2024-03-29T12:01:30;97809.53;;;23.77
76476;BMP280;65308;50.078;14.854;2024-03-29T12:04:00;97792.53;;;24.05
76476;BMP280;65308;50.078;14.854;2024-03-29T12:06:27;97786.13;;;24.49
76476;BMP280;65308;50.078;14.854;2024-03-29T12:08:54;97777.16;;;24.10
76476;BMP280;65308;50.078;14.854;2024-03-29T12:11:22;97787.34;;;24.09
76476;BMP280;65308;50.078;14.854;2024-03-29T12:13:49;97777.25;;;24.02
76476;BMP280;65308;50.078;14.854;2024-03-29T12:16:15;97789.22;;;24.07
76476;BMP280;65308;50.078;14.854;2024-03-29T12:18:46;97798.28;;;24.09
76476;BMP280;65308;50.078;14.854;2024-03-29T12:21:14;97807.38;;;24.21
76476;BMP280;65308;50.078;14.854;2024-03-29T12:23:47;97820.41;;;24.04
76476;BMP280;65308;50.078;14.854;2024-03-29T12:26:13;97817.56;;;24.11
76476;BMP280;65308;50.078;14.854;2024-03-29T12:28:40;97826.47;;;24.12
76476;BMP280;65308;50.078;14.854;2024-03-29T12:31:15;97831.00;;;24.27
76476;BMP280;65308;50.078;14.854;2024-03-29T12:33:51;97827.25;;;24.32
76476;BMP280;65308;50.078;14.854;2024-03-29T12:36:23;97826.38;;;24.19
76476;BMP280;65308;50.078;14.854;2024-03-29T12:38:54;97837.41;;;24.12
76476;BMP280;65308;50.078;14.854;2024-03-29T12:41:23;97831.91;;;24.48
76476;BMP280;65308;50.078;14.854;2024-03-29T12:43:50;97836.81;;;24.60
76476;BMP280;65308;50.078;14.854;2024-03-29T12:46:17;97833.38;;;24.69
76476;BMP280;65308;50.078;14.854;2024-03-29T12:48:43;97820.88;;;24.85
76476;BMP280;65308;50.078;14.854;2024-03-29T12:51:10;97825.88;;;24.89
76476;BMP280;65308;50.078;14.854;2024-03-29T12:53:39;97820.13;;;24.85
76476;BMP280;65308;50.078;14.854;2024-03-29T12:56:06;97825.03;;;24.86
76476;BMP280;65308;50.078;14.854;2024-03-29T12:58:32;97818.41;;;25.09
76476;BMP280;65308;50.078;14.854;2024-03-29T13:00:59;97806.75;;;24.98
76476;BMP280;65308;50.078;14.854;2024-03-29T13:03:29;97807.63;;;24.82
76476;BMP280;65308;50.078;14.854;2024-03-29T13:05:55;97806.03;;;24.78
76476;BMP280;65308;50.078;14.854;2024-03-29T13:08:22;97803.28;;;24.69
76476;BMP280;65308;50.078;14.854;2024-03-29T13:10:50;97793.22;;;24.71
76476;BMP280;65308;50.078;14.854;2024-03-29T13:13:16;97789.03;;;24.80
76476;BMP280;65308;50.078;14.854;2024-03-29T13:15:43;97788.63;;;24.55
76476;BMP280;65308;50.078;14.854;2024-03-29T13:18:12;97795.03;;;24.40
76476;BMP280;65308;50.078;14.854;2024-03-29T13:20:44;97773.44;;;24.25
76476;BMP280;65308;50.078;14.854;2024-03-29T13:23:11;97773.59;;;24.17
76476;BMP280;65308;50.078;14.854;2024-03-29T13:25:38;97754.97;;;24.06
76476;BMP280;65308;50.078;14.854;2024-03-29T13:28:07;97775.97;;;24.03
76476;BMP280;65308;50.078;14.854;2024-03-29T13:30:35;97762.88;;;24.11
76476;BMP280;65308;50.078;14.854;2024-03-29T13:33:08;97768.44;;;23.84
76476;BMP280;65308;50.078;14.854;2024-03-29T13:35:35;97761.06;;;23.77
76476;BMP280;65308;50.078;14.854;2024-03-29T13:38:01;97766.69;;;23.79
76476;BMP280;65308;50.078;14.854;2024-03-29T13:40:28;97766.41;;;23.85
76476;BMP280;65308;50.078;14.854;2024-03-29T13:42:57;97769.91;;;23.95
76476;BMP280;65308;50.078;14.854;2024-03-29T13:45:25;97764.56;;;23.97
76476;BMP280;65308;50.078;14.854;2024-03-29T13:47:53;97766.47;;;24.04
76476;BMP280;65308;50.078;14.854;2024-03-29T13:50:23;97751.19;;;23.91
76476;BMP280;65308;50.078;14.854;2024-03-29T13:52:50;97750.88;;;23.87
76476;BMP280;65308;50.078;14.854;2024-03-29T13:55:17;97752.16;;;23.77
76476;BMP280;65308;50.078;14.854;2024-03-29T13:57:43;97771.16;;;23.84
76476;BMP280;65308;50.078;14.854;2024-03-29T14:00:11;97776.09;;;23.96
76476;BMP280;65308;50.078;14.854;2024-03-29T14:02:41;97771.47;;;23.88